sensor_id;sensor_type;location;lat;lon;timestamp;temperature;humidity
53310;DHT22;39197;53.200;5.792;2023-04-15T00:00:13;7.80;99.90
53310;DHT22;39197;53.200;5.792;2023-04-15T00:02:40;7.80;99.90
53310;DHT22;39197;53.200;5.792;2023-04-15T00:05:06;7.80;99.90
53310;DHT22;39197;53.200;5.792;2023-04-15T00:07:32;7.80;99.90
53310;DHT22;39197;53.200;5.792;2023-04-15T00:09:58;7.70;99.90
53310;DHT22;39197;53.200;5.792;2023-04-15T00:12:24;7.70;99.90
53310;DHT22;39197;53.200;5.792;2023-04-15T00:14:50;7.70;99.90
53310;DHT22;39197;53.200;5.792;2023-04-15T00:17:16;7.70;99.90
53310;DHT22;39197;53.200;5.792;2023-04-15T00:19:42;7.60;99.90
53310;DHT22;39197;53.200;5.792;2023-04-15T00:22:10;7.60;99.90
53310;DHT22;39197;53.200;5.792;2023-04-15T00:24:36;7.60;99.90
53310;DHT22;39197;53.200;5.792;2023-04-15T00:27:02;7.60;99.90
53310;DHT22;39197;53.200;5.792;2023-04-15T00:29:28;7.50;99.90
53310;DHT22;39197;53.200;5.792;2023-04-15T00:31:55;7.50;99.90
53310;DHT22;39197;53.200;5.792;2023-04-15T00:34:24;7.50;99.90
53310;DHT22;39197;53.200;5.792;2023-04-15T00:36:50;7.40;99.90
53310;DHT22;39197;53.200;5.792;2023-04-15T00:39:19;7.40;99.90
53310;DHT22;39197;53.200;5.792;2023-04-15T00:41:45;7.40;99.90
53310;DHT22;39197;53.200;5.792;2023-04-15T00:44:11;7.40;99.90
53310;DHT22;39197;53.200;5.792;2023-04-15T00:46:38;7.30;99.90
53310;DHT22;39197;53.200;5.792;2023-04-15T00:49:05;7.30;99.90
53310;DHT22;39197;53.200;5.792;2023-04-15T00:51:31;7.30;99.90
53310;DHT22;39197;53.200;5.792;2023-04-15T00:54:02;7.20;99.90
53310;DHT22;39197;53.200;5.792;2023-04-15T00:56:28;7.20;99.90
53310;DHT22;39197;53.200;5.792;2023-04-15T00:58:54;7.20;99.90
53310;DHT22;39197;53.200;5.792;2023-04-15T01:01:21;7.20;99.90
53310;DHT22;39197;53.200;5.792;2023-04-15T01:03:49;7.20;99.90
53310;DHT22;39197;53.200;5.792;2023-04-15T01:06:16;7.10;99.90
53310;DHT22;39197;53.200;5.792;2023-04-15T01:08:42;7.10;99.90
53310;DHT22;39197;53.200;5.792;2023-04-15T01:11:08;7.10;99.90
53310;DHT22;39197;53.200;5.792;2023-04-15T01:13:35;7.00;99.90
53310;DHT22;39197;53.200;5.792;2023-04-15T01:16:01;6.90;99.90
53310;DHT22;39197;53.200;5.792;2023-04-15T01:18:27;6.80;99.90
53310;DHT22;39197;53.200;5.792;2023-04-15T01:20:53;6.90;99.90
53310;DHT22;39197;53.200;5.792;2023-04-15T01:23:20;6.80;99.90
53310;DHT22;39197;53.200;5.792;2023-04-15T01:25:48;6.80;99.90
53310;DHT22;39197;53.200;5.792;2023-04-15T01:28:14;6.80;99.90
53310;DHT22;39197;53.200;5.792;2023-04-15T01:30:40;6.80;99.90
53310;DHT22;39197;53.200;5.792;2023-04-15T01:33:06;6.70;99.90
53310;DHT22;39197;53.200;5.792;2023-04-15T01:35:32;6.70;99.90
53310;DHT22;39197;53.200;5.792;2023-04-15T01:38:06;6.70;99.90
53310;DHT22;39197;53.200;5.792;2023-04-15T01:40:32;6.60;99.90
53310;DHT22;39197;53.200;5.792;2023-04-15T01:42:58;6.50;99.90
53310;DHT22;39197;53.200;5.792;2023-04-15T01:45:24;6.60;99.90
53310;DHT22;39197;53.200;5.792;2023-04-15T01:47:50;6.50;99.90
53310;DHT22;39197;53.200;5.792;2023-04-15T01:50:15;6.50;99.90
53310;DHT22;39197;53.200;5.792;2023-04-15T01:52:41;6.40;99.90
53310;DHT22;39197;53.200;5.792;2023-04-15T01:55:08;6.50;99.90
53310;DHT22;39197;53.200;5.792;2023-04-15T01:57:34;6.40;99.90
53310;DHT22;39197;53.200;5.792;2023-04-15T02:00:01;6.40;99.90
53310;DHT22;39197;53.200;5.792;2023-04-15T02:02:28;6.50;99.90
53310;DHT22;39197;53.200;5.792;2023-04-15T02:04:55;6.40;99.90
53310;DHT22;39197;53.200;5.792;2023-04-15T02:07:20;6.40;99.90
53310;DHT22;39197;53.200;5.792;2023-04-15T02:09:46;6.40;99.90
53310;DHT22;39197;53.200;5.792;2023-04-15T02:12:12;6.40;99.90
53310;DHT22;39197;53.200;5.792;2023-04-15T02:14:38;6.40;99.90
53310;DHT22;39197;53.200;5.792;2023-04-15T02:17:04;6.40;99.90
53310;DHT22;39197;53.200;5.792;2023-04-15T02:19:35;6.40;99.90
53310;DHT22;39197;53.200;5.792;2023-04-15T02:22:01;6.40;99.90
53310;DHT22;39197;53.200;5.792;2023-04-15T02:24:29;6.40;99.90
53310;DHT22;39197;53.200;5.792;2023-04-15T02:26:55;6.40;99.90
53310;DHT22;39197;53.200;5.792;2023-04-15T02:29:21;6.40;99.90
53310;DHT22;39197;53.200;5.792;2023-04-15T02:31:47;6.40;99.90
53310;DHT22;39197;53.200;5.792;2023-04-15T02:34:13;6.40;99.90
53310;DHT22;39197;53.200;5.792;2023-04-15T02:36:39;6.40;99.90
53310;DHT22;39197;53.200;5.792;2023-04-15T02:39:05;6.40;99.90
53310;DHT22;39197;53.200;5.792;2023-04-15T02:41:31;6.40;99.90
53310;DHT22;39197;53.200;5.792;2023-04-15T02:43:57;6.30;99.90
53310;DHT22;39197;53.200;5.792;2023-04-15T02:46:22;6.40;99.90
53310;DHT22;39197;53.200;5.792;2023-04-15T02:48:49;6.30;99.90
53310;DHT22;39197;53.200;5.792;2023-04-15T02:51:17;6.30;99.90
53310;DHT22;39197;53.200;5.792;2023-04-15T02:53:44;6.30;99.90
53310;DHT22;39197;53.200;5.792;2023-04-15T02:56:10;6.30;99.90
53310;DHT22;39197;53.200;5.792;2023-04-15T02:58:36;6.30;99.90
53310;DHT22;39197;53.200;5.792;2023-04-15T03:01:02;6.30;99.90
53310;DHT22;39197;53.200;5.792;2023-04-15T03:03:28;6.20;99.90
53310;DHT22;39197;53.200;5.792;2023-04-15T03:05:53;6.20;99.90
53310;DHT22;39197;53.200;5.792;2023-04-15T03:08:19;6.20;99.90
53310;DHT22;39197;53.200;5.792;2023-04-15T03:10:48;6.20;99.90
53310;DHT22;39197;53.200;5.792;2023-04-15T03:13:13;6.20;99.90
53310;DHT22;39197;53.200;5.792;2023-04-15T03:15:39;6.10;99.90
53310;DHT22;39197;53.200;5.792;2023-04-15T03:18:04;6.10;99.90
53310;DHT22;39197;53.200;5.792;2023-04-15T03:20:30;6.10;99.90
53310;DHT22;39197;53.200;5.792;2023-04-15T03:22:56;6.10;99.90
53310;DHT22;39197;53.200;5.792;2023-04-15T03:25:21;6.10;99.90
53310;DHT22;39197;53.200;5.792;2023-04-15T03:27:47;6.00;99.90
53310;DHT22;39197;53.200;5.792;2023-04-15T03:30:12;6.10;99.90
53310;DHT22;39197;53.200;5.792;2023-04-15T03:32:38;6.10;99.90
53310;DHT22;39197;53.200;5.792;2023-04-15T03:35:04;6.00;99.90
53310;DHT22;39197;53.200;5.792;2023-04-15T03:37:30;6.00;99.90
53310;DHT22;39197;53.200;5.792;2023-04-15T03:39:56;6.00;99.90
53310;DHT22;39197;53.200;5.792;2023-04-15T03:42:22;5.90;99.90
53310;DHT22;39197;53.200;5.792;2023-04-15T03:44:47;5.90;99.90
53310;DHT22;39197;53.200;5.792;2023-04-15T03:47:13;5.80;99.90
53310;DHT22;39197;53.200;5.792;2023-04-15T03:49:39;5.80;99.90
53310;DHT22;39197;53.200;5.792;2023-04-15T03:52:04;5.80;99.90
53310;DHT22;39197;53.200;5.792;2023-04-15T03:54:30;5.70;99.90
53310;DHT22;39197;53.200;5.792;2023-04-15T03:56:56;5.70;99.90
53310;DHT22;39197;53.200;5.792;2023-04-15T03:59:22;5.70;99.90
53310;DHT22;39197;53.200;5.792;2023-04-15T04:01:47;5.70;99.90
53310;DHT22;39197;53.200;5.792;2023-04-15T04:04:13;5.70;99.90
53310;DHT22;39197;53.200;5.792;2023-04-15T04:06:38;5.60;99.90
53310;DHT22;39197;53.200;5.792;2023-04-15T04:09:04;5.60;99.90
53310;DHT22;39197;53.200;5.792;2023-04-15T04:11:30;5.60;99.90
53310;DHT22;39197;53.200;5.792;2023-04-15T04:13:56;5.60;99.90
53310;DHT22;39197;53.200;5.792;2023-04-15T04:16:21;5.60;99.90
53310;DHT22;39197;53.200;5.792;2023-04-15T04:18:47;5.60;99.90
53310;DHT22;39197;53.200;5.792;2023-04-15T04:21:12;5.50;99.90
53310;DHT22;39197;53.200;5.792;2023-04-15T04:23:38;5.60;99.90
53310;DHT22;39197;53.200;5.792;2023-04-15T04:26:04;5.60;99.90
53310;DHT22;39197;53.200;5.792;2023-04-15T04:28:29;5.60;99.90
53310;DHT22;39197;53.200;5.792;2023-04-15T04:30:55;5.60;99.90
53310;DHT22;39197;53.200;5.792;2023-04-15T04:33:21;5.60;99.90
53310;DHT22;39197;53.200;5.792;2023-04-15T04:35:46;5.60;99.90
53310;DHT22;39197;53.200;5.792;2023-04-15T04:38:12;5.60;99.90
53310;DHT22;39197;53.200;5.792;2023-04-15T04:40:37;5.60;99.90
53310;DHT22;39197;53.200;5.792;2023-04-15T04:43:04;5.50;99.90
53310;DHT22;39197;53.200;5.792;2023-04-15T04:45:29;5.50;99.90
53310;DHT22;39197;53.200;5.792;2023-04-15T04:47:55;5.50;99.90
53310;DHT22;39197;53.200;5.792;2023-04-15T04:50:21;5.50;99.90
53310;DHT22;39197;53.200;5.792;2023-04-15T04:52:46;5.50;99.90
53310;DHT22;39197;53.200;5.792;2023-04-15T04:55:12;5.50;99.90
53310;DHT22;39197;53.200;5.792;2023-04-15T04:57:37;5.50;99.90
53310;DHT22;39197;53.200;5.792;2023-04-15T05:00:07;5.50;99.90
53310;DHT22;39197;53.200;5.792;2023-04-15T05:02:33;5.50;99.90
53310;DHT22;39197;53.200;5.792;2023-04-15T05:04:59;5.50;99.90
53310;DHT22;39197;53.200;5.792;2023-04-15T05:07:25;5.50;99.90
53310;DHT22;39197;53.200;5.792;2023-04-15T05:09:50;5.50;99.90
53310;DHT22;39197;53.200;5.792;2023-04-15T05:12:16;5.60;99.90
53310;DHT22;39197;53.200;5.792;2023-04-15T05:14:43;5.50;99.90
53310;DHT22;39197;53.200;5.792;2023-04-15T05:17:08;5.60;99.90
53310;DHT22;39197;53.200;5.792;2023-04-15T05:19:34;5.60;99.90
53310;DHT22;39197;53.200;5.792;2023-04-15T05:22:00;5.60;99.90
53310;DHT22;39197;53.200;5.792;2023-04-15T05:24:25;5.50;99.90
53310;DHT22;39197;53.200;5.792;2023-04-15T05:26:51;5.50;99.90
53310;DHT22;39197;53.200;5.792;2023-04-15T05:29:17;5.60;99.90
53310;DHT22;39197;53.200;5.792;2023-04-15T05:31:42;5.60;99.90
53310;DHT22;39197;53.200;5.792;2023-04-15T05:34:08;5.60;99.90
53310;DHT22;39197;53.200;5.792;2023-04-15T05:36:34;5.60;99.90
53310;DHT22;39197;53.200;5.792;2023-04-15T05:39:00;5.70;99.90
53310;DHT22;39197;53.200;5.792;2023-04-15T05:41:26;5.70;99.90
53310;DHT22;39197;53.200;5.792;2023-04-15T05:43:51;5.70;99.90
53310;DHT22;39197;53.200;5.792;2023-04-15T05:46:17;5.70;99.90
53310;DHT22;39197;53.200;5.792;2023-04-15T05:48:43;5.80;99.90
53310;DHT22;39197;53.200;5.792;2023-04-15T05:51:08;5.90;99.90
53310;DHT22;39197;53.200;5.792;2023-04-15T05:53:34;5.90;99.90
53310;DHT22;39197;53.200;5.792;2023-04-15T05:56:00;5.90;99.90
53310;DHT22;39197;53.200;5.792;2023-04-15T05:58:25;6.00;99.90
53310;DHT22;39197;53.200;5.792;2023-04-15T06:00:51;6.10;99.90
53310;DHT22;39197;53.200;5.792;2023-04-15T06:03:17;6.20;99.90
53310;DHT22;39197;53.200;5.792;2023-04-15T06:05:43;6.20;99.90
53310;DHT22;39197;53.200;5.792;2023-04-15T06:08:09;6.30;99.90
53310;DHT22;39197;53.200;5.792;2023-04-15T06:10:35;6.40;99.90
53310;DHT22;39197;53.200;5.792;2023-04-15T06:13:02;6.60;99.90
53310;DHT22;39197;53.200;5.792;2023-04-15T06:15:28;6.70;99.90
53310;DHT22;39197;53.200;5.792;2023-04-15T06:17:54;6.80;99.90
53310;DHT22;39197;53.200;5.792;2023-04-15T06:20:20;7.00;99.90
53310;DHT22;39197;53.200;5.792;2023-04-15T06:22:46;7.10;99.90
53310;DHT22;39197;53.200;5.792;2023-04-15T06:25:11;7.30;99.90
53310;DHT22;39197;53.200;5.792;2023-04-15T06:27:37;7.40;99.90
53310;DHT22;39197;53.200;5.792;2023-04-15T06:30:03;7.60;99.90
53310;DHT22;39197;53.200;5.792;2023-04-15T06:32:29;7.70;99.90
53310;DHT22;39197;53.200;5.792;2023-04-15T06:34:55;7.90;99.90
53310;DHT22;39197;53.200;5.792;2023-04-15T06:37:21;8.00;99.90
53310;DHT22;39197;53.200;5.792;2023-04-15T06:39:46;8.20;99.90
53310;DHT22;39197;53.200;5.792;2023-04-15T06:42:12;8.40;99.90
53310;DHT22;39197;53.200;5.792;2023-04-15T06:44:38;8.40;99.90
53310;DHT22;39197;53.200;5.792;2023-04-15T06:47:03;8.50;99.90
53310;DHT22;39197;53.200;5.792;2023-04-15T06:49:29;8.70;99.90
53310;DHT22;39197;53.200;5.792;2023-04-15T06:51:54;8.80;99.90
53310;DHT22;39197;53.200;5.792;2023-04-15T06:54:20;8.80;99.90
53310;DHT22;39197;53.200;5.792;2023-04-15T06:56:48;8.80;99.90
53310;DHT22;39197;53.200;5.792;2023-04-15T06:59:13;9.00;99.90
53310;DHT22;39197;53.200;5.792;2023-04-15T07:01:42;9.20;99.90
53310;DHT22;39197;53.200;5.792;2023-04-15T07:04:08;9.30;99.90
53310;DHT22;39197;53.200;5.792;2023-04-15T07:06:33;9.50;99.90
53310;DHT22;39197;53.200;5.792;2023-04-15T07:09:00;9.60;99.90
53310;DHT22;39197;53.200;5.792;2023-04-15T07:11:26;9.60;99.90
53310;DHT22;39197;53.200;5.792;2023-04-15T07:13:52;10.00;99.90
53310;DHT22;39197;53.200;5.792;2023-04-15T07:16:18;10.20;99.90
53310;DHT22;39197;53.200;5.792;2023-04-15T07:18:43;10.50;99.90
53310;DHT22;39197;53.200;5.792;2023-04-15T07:21:10;10.40;99.90
53310;DHT22;39197;53.200;5.792;2023-04-15T07:23:37;10.40;99.90
53310;DHT22;39197;53.200;5.792;2023-04-15T07:26:03;10.50;99.90
53310;DHT22;39197;53.200;5.792;2023-04-15T07:28:28;10.60;99.90
53310;DHT22;39197;53.200;5.792;2023-04-15T07:30:54;10.80;99.90
53310;DHT22;39197;53.200;5.792;2023-04-15T07:33:22;11.10;99.90
53310;DHT22;39197;53.200;5.792;2023-04-15T07:35:47;11.50;99.90
53310;DHT22;39197;53.200;5.792;2023-04-15T07:38:13;11.60;99.90
53310;DHT22;39197;53.200;5.792;2023-04-15T07:40:39;12.20;99.90
53310;DHT22;39197;53.200;5.792;2023-04-15T07:43:05;12.40;99.90
53310;DHT22;39197;53.200;5.792;2023-04-15T07:45:31;12.80;99.90
53310;DHT22;39197;53.200;5.792;2023-04-15T07:47:57;13.40;99.90
53310;DHT22;39197;53.200;5.792;2023-04-15T07:50:22;13.70;99.90
53310;DHT22;39197;53.200;5.792;2023-04-15T07:52:49;14.30;99.90
53310;DHT22;39197;53.200;5.792;2023-04-15T07:55:16;14.30;99.90
53310;DHT22;39197;53.200;5.792;2023-04-15T07:57:44;13.70;99.90
53310;DHT22;39197;53.200;5.792;2023-04-15T08:00:10;13.00;99.90
53310;DHT22;39197;53.200;5.792;2023-04-15T08:02:36;13.50;99.90
53310;DHT22;39197;53.200;5.792;2023-04-15T08:05:02;13.60;99.90
53310;DHT22;39197;53.200;5.792;2023-04-15T08:07:28;13.70;99.90
53310;DHT22;39197;53.200;5.792;2023-04-15T08:09:54;13.70;99.90
53310;DHT22;39197;53.200;5.792;2023-04-15T08:12:20;12.70;99.90
53310;DHT22;39197;53.200;5.792;2023-04-15T08:14:46;12.60;99.90
53310;DHT22;39197;53.200;5.792;2023-04-15T08:17:11;12.50;99.90
53310;DHT22;39197;53.200;5.792;2023-04-15T08:19:37;12.50;99.90
53310;DHT22;39197;53.200;5.792;2023-04-15T08:22:03;12.70;99.90
53310;DHT22;39197;53.200;5.792;2023-04-15T08:24:29;12.30;99.90
53310;DHT22;39197;53.200;5.792;2023-04-15T08:26:55;12.00;99.90
53310;DHT22;39197;53.200;5.792;2023-04-15T08:29:22;11.50;99.90
53310;DHT22;39197;53.200;5.792;2023-04-15T08:31:48;11.80;99.90
53310;DHT22;39197;53.200;5.792;2023-04-15T08:34:14;11.80;99.90
53310;DHT22;39197;53.200;5.792;2023-04-15T08:36:41;11.80;99.90
53310;DHT22;39197;53.200;5.792;2023-04-15T08:39:07;11.90;99.90
53310;DHT22;39197;53.200;5.792;2023-04-15T08:41:44;12.00;99.90
53310;DHT22;39197;53.200;5.792;2023-04-15T08:44:13;12.20;99.90
53310;DHT22;39197;53.200;5.792;2023-04-15T08:46:38;12.40;99.90
53310;DHT22;39197;53.200;5.792;2023-04-15T08:49:09;12.50;99.90
53310;DHT22;39197;53.200;5.792;2023-04-15T08:51:35;12.30;99.90
53310;DHT22;39197;53.200;5.792;2023-04-15T08:54:01;12.30;99.90
53310;DHT22;39197;53.200;5.792;2023-04-15T08:56:30;12.20;99.90
53310;DHT22;39197;53.200;5.792;2023-04-15T08:58:58;12.20;99.90
53310;DHT22;39197;53.200;5.792;2023-04-15T09:01:23;12.10;99.90
53310;DHT22;39197;53.200;5.792;2023-04-15T09:03:50;11.90;99.90
53310;DHT22;39197;53.200;5.792;2023-04-15T09:06:16;11.30;99.90
53310;DHT22;39197;53.200;5.792;2023-04-15T09:08:42;11.30;99.90
53310;DHT22;39197;53.200;5.792;2023-04-15T09:11:08;11.40;99.90
53310;DHT22;39197;53.200;5.792;2023-04-15T09:13:34;11.20;99.90
53310;DHT22;39197;53.200;5.792;2023-04-15T09:16:04;10.90;99.90
53310;DHT22;39197;53.200;5.792;2023-04-15T09:18:32;10.80;99.90
53310;DHT22;39197;53.200;5.792;2023-04-15T09:21:08;11.00;99.90
53310;DHT22;39197;53.200;5.792;2023-04-15T09:23:53;10.90;99.90
53310;DHT22;39197;53.200;5.792;2023-04-15T09:26:19;11.10;99.90
53310;DHT22;39197;53.200;5.792;2023-04-15T09:28:44;11.30;99.90
53310;DHT22;39197;53.200;5.792;2023-04-15T09:31:10;11.40;99.90
53310;DHT22;39197;53.200;5.792;2023-04-15T09:33:53;11.80;99.90
53310;DHT22;39197;53.200;5.792;2023-04-15T09:36:20;12.40;99.90
53310;DHT22;39197;53.200;5.792;2023-04-15T09:38:59;12.70;99.90
53310;DHT22;39197;53.200;5.792;2023-04-15T09:41:25;12.50;99.90
53310;DHT22;39197;53.200;5.792;2023-04-15T09:43:51;12.80;99.90
53310;DHT22;39197;53.200;5.792;2023-04-15T09:46:17;13.00;99.90
53310;DHT22;39197;53.200;5.792;2023-04-15T09:48:43;12.90;99.90
53310;DHT22;39197;53.200;5.792;2023-04-15T09:51:08;12.90;99.90
53310;DHT22;39197;53.200;5.792;2023-04-15T09:53:35;13.30;99.90
53310;DHT22;39197;53.200;5.792;2023-04-15T09:56:02;12.80;99.90
53310;DHT22;39197;53.200;5.792;2023-04-15T09:58:30;13.10;99.90
53310;DHT22;39197;53.200;5.792;2023-04-15T10:00:57;12.80;99.90
53310;DHT22;39197;53.200;5.792;2023-04-15T10:03:29;12.70;99.90
53310;DHT22;39197;53.200;5.792;2023-04-15T10:05:57;12.80;99.90
53310;DHT22;39197;53.200;5.792;2023-04-15T10:08:25;12.30;99.90
53310;DHT22;39197;53.200;5.792;2023-04-15T10:10:52;12.70;99.90
53310;DHT22;39197;53.200;5.792;2023-04-15T10:13:22;12.70;99.90
53310;DHT22;39197;53.200;5.792;2023-04-15T10:15:51;12.80;99.90
53310;DHT22;39197;53.200;5.792;2023-04-15T10:18:19;13.10;99.90
53310;DHT22;39197;53.200;5.792;2023-04-15T10:20:47;13.20;99.90
53310;DHT22;39197;53.200;5.792;2023-04-15T10:23:14;13.20;99.90
53310;DHT22;39197;53.200;5.792;2023-04-15T10:25:40;12.70;99.90
53310;DHT22;39197;53.200;5.792;2023-04-15T10:28:06;12.80;99.90
53310;DHT22;39197;53.200;5.792;2023-04-15T10:30:33;12.70;99.90
53310;DHT22;39197;53.200;5.792;2023-04-15T10:33:00;12.90;99.90
53310;DHT22;39197;53.200;5.792;2023-04-15T10:35:29;13.10;99.90
53310;DHT22;39197;53.200;5.792;2023-04-15T10:37:55;12.90;99.90
53310;DHT22;39197;53.200;5.792;2023-04-15T10:42:54;12.60;99.90
53310;DHT22;39197;53.200;5.792;2023-04-15T10:45:20;12.10;99.90
53310;DHT22;39197;53.200;5.792;2023-04-15T10:47:47;12.80;99.90
53310;DHT22;39197;53.200;5.792;2023-04-15T10:50:18;13.20;99.90
53310;DHT22;39197;53.200;5.792;2023-04-15T10:52:43;13.60;99.90
53310;DHT22;39197;53.200;5.792;2023-04-15T10:55:21;13.50;99.90
53310;DHT22;39197;53.200;5.792;2023-04-15T10:57:51;13.00;99.90
53310;DHT22;39197;53.200;5.792;2023-04-15T11:00:19;13.00;99.90
53310;DHT22;39197;53.200;5.792;2023-04-15T11:05:18;12.50;99.90
53310;DHT22;39197;53.200;5.792;2023-04-15T11:07:50;12.20;99.90
53310;DHT22;39197;53.200;5.792;2023-04-15T11:12:57;12.30;99.90
53310;DHT22;39197;53.200;5.792;2023-04-15T11:17:58;12.00;99.90
53310;DHT22;39197;53.200;5.792;2023-04-15T11:20:25;12.00;99.90
53310;DHT22;39197;53.200;5.792;2023-04-15T11:22:53;11.60;99.90
53310;DHT22;39197;53.200;5.792;2023-04-15T11:25:25;11.10;99.90
53310;DHT22;39197;53.200;5.792;2023-04-15T11:27:52;11.30;99.90
53310;DHT22;39197;53.200;5.792;2023-04-15T11:30:20;11.20;99.90
53310;DHT22;39197;53.200;5.792;2023-04-15T11:32:50;11.00;99.90
53310;DHT22;39197;53.200;5.792;2023-04-15T11:35:16;11.10;99.90
53310;DHT22;39197;53.200;5.792;2023-04-15T11:37:46;10.90;99.90
53310;DHT22;39197;53.200;5.792;2023-04-15T11:40:12;11.00;99.90
53310;DHT22;39197;53.200;5.792;2023-04-15T11:42:40;11.10;99.90
53310;DHT22;39197;53.200;5.792;2023-04-15T11:45:12;11.20;99.90
53310;DHT22;39197;53.200;5.792;2023-04-15T11:47:40;11.20;99.90
53310;DHT22;39197;53.200;5.792;2023-04-15T11:50:20;11.30;99.90
53310;DHT22;39197;53.200;5.792;2023-04-15T11:52:59;11.40;99.90
53310;DHT22;39197;53.200;5.792;2023-04-15T11:55:25;11.10;99.90
53310;DHT22;39197;53.200;5.792;2023-04-15T11:58:16;11.20;99.90
53310;DHT22;39197;53.200;5.792;2023-04-15T12:00:57;11.40;99.90
53310;DHT22;39197;53.200;5.792;2023-04-15T12:03:37;11.30;99.90
53310;DHT22;39197;53.200;5.792;2023-04-15T12:14:24;10.80;99.90
53310;DHT22;39197;53.200;5.792;2023-04-15T12:16:52;10.90;99.90
53310;DHT22;39197;53.200;5.792;2023-04-15T12:19:35;10.80;99.90
53310;DHT22;39197;53.200;5.792;2023-04-15T12:22:04;10.70;99.90
53310;DHT22;39197;53.200;5.792;2023-04-15T12:24:34;10.60;99.90
53310;DHT22;39197;53.200;5.792;2023-04-15T12:27:08;10.40;99.90
53310;DHT22;39197;53.200;5.792;2023-04-15T12:29:35;10.50;99.90
53310;DHT22;39197;53.200;5.792;2023-04-15T12:32:04;10.30;99.90
53310;DHT22;39197;53.200;5.792;2023-04-15T12:34:35;10.30;99.90
53310;DHT22;39197;53.200;5.792;2023-04-15T12:37:04;10.30;99.90
53310;DHT22;39197;53.200;5.792;2023-04-15T12:39:33;10.40;99.90
53310;DHT22;39197;53.200;5.792;2023-04-15T12:42:00;10.30;99.90
53310;DHT22;39197;53.200;5.792;2023-04-15T12:44:26;10.20;99.90
53310;DHT22;39197;53.200;5.792;2023-04-15T12:46:52;10.20;99.90
53310;DHT22;39197;53.200;5.792;2023-04-15T12:49:19;10.30;99.90
53310;DHT22;39197;53.200;5.792;2023-04-15T12:51:50;10.00;99.90
53310;DHT22;39197;53.200;5.792;2023-04-15T12:54:17;9.90;99.90
53310;DHT22;39197;53.200;5.792;2023-04-15T12:56:46;10.00;99.90
53310;DHT22;39197;53.200;5.792;2023-04-15T12:59:13;10.00;99.90
53310;DHT22;39197;53.200;5.792;2023-04-15T13:01:39;9.90;99.90
53310;DHT22;39197;53.200;5.792;2023-04-15T13:04:06;10.00;99.90
53310;DHT22;39197;53.200;5.792;2023-04-15T13:06:32;10.10;99.90
53310;DHT22;39197;53.200;5.792;2023-04-15T13:08:59;10.00;99.90
53310;DHT22;39197;53.200;5.792;2023-04-15T13:11:26;9.90;99.90
53310;DHT22;39197;53.200;5.792;2023-04-15T13:13:55;9.80;99.90
53310;DHT22;39197;53.200;5.792;2023-04-15T13:16:22;9.60;99.90
53310;DHT22;39197;53.200;5.792;2023-04-15T13:18:48;9.40;99.90
53310;DHT22;39197;53.200;5.792;2023-04-15T13:21:13;9.50;99.90
53310;DHT22;39197;53.200;5.792;2023-04-15T13:23:42;9.60;99.90
53310;DHT22;39197;53.200;5.792;2023-04-15T13:26:08;9.70;99.90
53310;DHT22;39197;53.200;5.792;2023-04-15T13:28:34;9.80;99.90
53310;DHT22;39197;53.200;5.792;2023-04-15T13:31:00;9.70;99.90
53310;DHT22;39197;53.200;5.792;2023-04-15T13:33:26;9.70;99.90
53310;DHT22;39197;53.200;5.792;2023-04-15T13:35:52;9.70;99.90
53310;DHT22;39197;53.200;5.792;2023-04-15T13:38:17;9.60;99.90
53310;DHT22;39197;53.200;5.792;2023-04-15T13:40:43;9.40;99.90
53310;DHT22;39197;53.200;5.792;2023-04-15T13:43:08;9.40;99.90
53310;DHT22;39197;53.200;5.792;2023-04-15T13:45:34;9.40;99.90
53310;DHT22;39197;53.200;5.792;2023-04-15T13:48:00;9.60;99.90
53310;DHT22;39197;53.200;5.792;2023-04-15T13:50:27;9.60;99.90
53310;DHT22;39197;53.200;5.792;2023-04-15T13:52:52;9.70;99.90
53310;DHT22;39197;53.200;5.792;2023-04-15T13:55:18;9.80;99.90
53310;DHT22;39197;53.200;5.792;2023-04-15T13:57:44;9.80;99.90
53310;DHT22;39197;53.200;5.792;2023-04-15T14:00:10;9.70;99.90
53310;DHT22;39197;53.200;5.792;2023-04-15T14:02:39;9.70;99.90
53310;DHT22;39197;53.200;5.792;2023-04-15T14:05:05;9.60;99.90
53310;DHT22;39197;53.200;5.792;2023-04-15T14:07:30;9.70;99.90
53310;DHT22;39197;53.200;5.792;2023-04-15T14:09:56;9.80;99.90
53310;DHT22;39197;53.200;5.792;2023-04-15T14:12:22;9.70;99.90
53310;DHT22;39197;53.200;5.792;2023-04-15T14:14:47;9.70;99.90
53310;DHT22;39197;53.200;5.792;2023-04-15T14:17:13;9.70;99.90
53310;DHT22;39197;53.200;5.792;2023-04-15T14:19:38;9.70;99.90
53310;DHT22;39197;53.200;5.792;2023-04-15T14:22:04;9.70;99.90
53310;DHT22;39197;53.200;5.792;2023-04-15T14:24:30;9.80;99.90
53310;DHT22;39197;53.200;5.792;2023-04-15T14:26:55;9.80;99.90
53310;DHT22;39197;53.200;5.792;2023-04-15T14:29:22;9.80;99.90
53310;DHT22;39197;53.200;5.792;2023-04-15T14:31:47;9.70;99.90
53310;DHT22;39197;53.200;5.792;2023-04-15T14:34:15;9.80;99.90
53310;DHT22;39197;53.200;5.792;2023-04-15T14:36:40;9.90;99.90
53310;DHT22;39197;53.200;5.792;2023-04-15T14:39:06;9.90;99.90
53310;DHT22;39197;53.200;5.792;2023-04-15T14:41:33;10.00;99.90
53310;DHT22;39197;53.200;5.792;2023-04-15T14:43:58;10.10;99.90
53310;DHT22;39197;53.200;5.792;2023-04-15T14:46:25;10.10;99.90
53310;DHT22;39197;53.200;5.792;2023-04-15T14:48:51;9.70;99.90
53310;DHT22;39197;53.200;5.792;2023-04-15T14:51:17;9.80;99.90
53310;DHT22;39197;53.200;5.792;2023-04-15T14:53:44;9.80;99.90
53310;DHT22;39197;53.200;5.792;2023-04-15T14:56:10;9.90;99.90
53310;DHT22;39197;53.200;5.792;2023-04-15T14:58:36;9.80;99.90
53310;DHT22;39197;53.200;5.792;2023-04-15T15:01:02;9.80;99.90
53310;DHT22;39197;53.200;5.792;2023-04-15T15:03:28;9.70;99.90
53310;DHT22;39197;53.200;5.792;2023-04-15T15:05:54;9.90;99.90
53310;DHT22;39197;53.200;5.792;2023-04-15T15:08:20;9.70;99.90
53310;DHT22;39197;53.200;5.792;2023-04-15T15:10:45;9.70;99.90
53310;DHT22;39197;53.200;5.792;2023-04-15T15:13:11;9.70;99.90
53310;DHT22;39197;53.200;5.792;2023-04-15T15:15:37;9.70;99.90
53310;DHT22;39197;53.200;5.792;2023-04-15T15:18:06;9.70;99.90
53310;DHT22;39197;53.200;5.792;2023-04-15T15:20:31;9.60;99.90
53310;DHT22;39197;53.200;5.792;2023-04-15T15:22:57;9.70;99.90
53310;DHT22;39197;53.200;5.792;2023-04-15T15:25:23;9.70;99.90
53310;DHT22;39197;53.200;5.792;2023-04-15T15:27:49;9.60;99.90
53310;DHT22;39197;53.200;5.792;2023-04-15T15:30:14;9.60;99.90
53310;DHT22;39197;53.200;5.792;2023-04-15T15:32:41;9.50;99.90
53310;DHT22;39197;53.200;5.792;2023-04-15T15:35:07;9.40;99.90
53310;DHT22;39197;53.200;5.792;2023-04-15T15:37:34;9.60;99.90
53310;DHT22;39197;53.200;5.792;2023-04-15T15:40:02;9.50;99.90
53310;DHT22;39197;53.200;5.792;2023-04-15T15:42:30;9.50;99.90
53310;DHT22;39197;53.200;5.792;2023-04-15T15:44:56;9.40;99.90
53310;DHT22;39197;53.200;5.792;2023-04-15T15:47:22;9.40;99.90
53310;DHT22;39197;53.200;5.792;2023-04-15T15:49:47;9.40;99.90
53310;DHT22;39197;53.200;5.792;2023-04-15T15:52:13;9.50;99.90
53310;DHT22;39197;53.200;5.792;2023-04-15T15:54:39;9.50;99.90